createdAt,value
2018-06-25T00:00:34.462Z,0.00
2018-06-25T00:01:34.497Z,0.00
2018-06-25T00:03:27.584Z,0.00
2018-06-25T00:04:27.515Z,0.00
2018-06-25T00:06:20.413Z,0.00
2018-06-25T00:07:20.283Z,0.00
2018-06-25T00:09:13.286Z,0.00
2018-06-25T00:10:13.238Z,0.00
2018-06-25T00:12:06.208Z,0.00
2018-06-25T00:13:06.172Z,0.00
2018-06-25T00:14:59.002Z,0.00
2018-06-25T00:15:58.952Z,0.00
2018-06-25T00:17:51.759Z,0.00
2018-06-25T00:18:51.718Z,0.00
2018-06-25T00:20:44.569Z,0.00
2018-06-25T00:21:44.518Z,0.00
2018-06-25T00:23:37.319Z,0.00
2018-06-25T00:24:37.279Z,0.00
2018-06-25T00:26:30.263Z,0.00
2018-06-25T00:27:30.210Z,0.00
2018-06-25T00:29:23.044Z,0.00
2018-06-25T00:30:22.988Z,0.00
2018-06-25T00:32:16.110Z,0.00
2018-06-25T00:33:16.080Z,0.00
2018-06-25T00:35:09.071Z,0.00
2018-06-25T00:36:09.015Z,0.00
2018-06-25T00:38:01.922Z,0.00
2018-06-25T00:39:01.888Z,0.00
2018-06-25T00:40:54.715Z,0.00
2018-06-25T00:41:54.661Z,0.00
2018-06-25T00:43:47.640Z,0.00
2018-06-25T00:44:47.611Z,0.00
2018-06-25T00:46:40.581Z,0.00
2018-06-25T00:47:40.543Z,0.00
2018-06-25T00:49:33.350Z,0.00
2018-06-25T00:50:33.314Z,0.00
2018-06-25T00:52:26.320Z,0.00
2018-06-25T00:53:26.273Z,0.00
2018-06-25T00:55:19.265Z,0.00
2018-06-25T00:56:19.248Z,0.00
2018-06-25T00:58:12.311Z,0.00
2018-06-25T00:59:12.281Z,0.00
2018-06-25T01:01:05.250Z,0.00
2018-06-25T01:02:05.202Z,0.00
2018-06-25T01:03:58.181Z,0.00
2018-06-25T01:04:58.142Z,0.00
2018-06-25T01:06:50.968Z,0.00
2018-06-25T01:07:50.914Z,0.00
2018-06-25T01:09:43.961Z,0.00
2018-06-25T01:10:43.924Z,0.00
2018-06-25T01:12:36.919Z,0.00
2018-06-25T01:13:36.882Z,0.00
2018-06-25T01:15:29.828Z,0.00
2018-06-25T01:16:29.789Z,0.00
2018-06-25T01:18:22.632Z,0.00
2018-06-25T01:19:22.584Z,0.00
2018-06-25T01:21:15.576Z,0.00
2018-06-25T01:22:15.521Z,0.00
2018-06-25T01:24:08.506Z,0.00
2018-06-25T01:25:08.461Z,0.00
2018-06-25T01:27:01.317Z,0.00
2018-06-25T01:28:01.239Z,0.00
2018-06-25T01:29:54.124Z,0.00
2018-06-25T01:30:54.077Z,0.00
2018-06-25T01:32:47.053Z,0.00
2018-06-25T01:33:47.007Z,0.00
2018-06-25T01:35:40.015Z,0.00
2018-06-25T01:36:39.966Z,0.00
2018-06-25T01:38:33.092Z,0.00
2018-06-25T01:39:33.057Z,0.00
2018-06-25T01:41:26.061Z,0.00
2018-06-25T01:42:26.007Z,0.00
2018-06-25T01:44:18.992Z,0.00
2018-06-25T01:45:18.957Z,0.00
2018-06-25T01:47:12.008Z,0.00
2018-06-25T01:48:11.962Z,0.00
2018-06-25T01:50:04.918Z,0.00
2018-06-25T01:51:04.893Z,0.00
2018-06-25T01:52:57.723Z,0.00
2018-06-25T01:53:57.716Z,0.00
2018-06-25T01:55:50.842Z,0.00
2018-06-25T01:56:50.763Z,0.00
2018-06-25T01:58:43.775Z,0.00
2018-06-25T01:59:43.716Z,0.00
2018-06-25T02:01:36.528Z,0.00
2018-06-25T02:02:36.498Z,0.00
2018-06-25T02:04:29.493Z,0.00
2018-06-25T02:05:29.447Z,0.00
2018-06-25T02:07:22.422Z,0.00
2018-06-25T02:08:22.378Z,0.00
2018-06-25T02:10:15.427Z,0.00
2018-06-25T02:11:15.373Z,0.00
2018-06-25T02:13:08.203Z,0.00
2018-06-25T02:14:08.147Z,0.00
2018-06-25T02:16:01.189Z,0.00
2018-06-25T02:17:01.157Z,0.00
2018-06-25T02:18:54.148Z,0.00
2018-06-25T02:19:54.076Z,0.00
2018-06-25T02:21:47.068Z,0.00
2018-06-25T02:22:47.028Z,0.00
2018-06-25T02:24:39.864Z,0.00
2018-06-25T02:25:39.799Z,0.00
2018-06-25T02:27:32.791Z,0.00
2018-06-25T02:28:32.763Z,0.00
2018-06-25T02:30:25.744Z,0.00
2018-06-25T02:31:25.699Z,0.00
2018-06-25T02:33:18.844Z,0.00
2018-06-25T02:34:18.786Z,0.00
2018-06-25T02:36:11.773Z,0.00
2018-06-25T02:37:11.730Z,0.00
2018-06-25T02:39:04.702Z,0.00
2018-06-25T02:40:04.669Z,0.00
2018-06-25T02:41:57.470Z,0.00
2018-06-25T02:42:57.464Z,0.00
2018-06-25T02:44:50.468Z,0.00
2018-06-25T02:45:50.431Z,0.00
2018-06-25T02:47:43.468Z,0.00
2018-06-25T02:48:43.433Z,0.00
2018-06-25T02:50:36.858Z,0.00
2018-06-25T02:51:36.514Z,0.00
2018-06-25T02:53:29.328Z,0.00
2018-06-25T02:54:29.283Z,0.00
2018-06-25T02:56:22.119Z,4.00
2018-06-25T02:57:22.079Z,4.00
2018-06-25T02:59:15.153Z,0.00
2018-06-25T03:00:15.025Z,0.00
2018-06-25T03:02:08.093Z,4.00
2018-06-25T03:03:08.054Z,0.00
2018-06-25T03:05:01.031Z,4.00
2018-06-25T03:06:00.992Z,4.00
2018-06-25T03:07:53.961Z,4.00
2018-06-25T03:08:53.933Z,4.00
2018-06-25T03:10:46.821Z,4.00
2018-06-25T03:11:46.758Z,8.00
2018-06-25T03:13:39.730Z,12.00
2018-06-25T03:14:39.693Z,12.00
2018-06-25T03:16:32.679Z,8.00
2018-06-25T03:17:32.654Z,12.00
2018-06-25T03:19:25.843Z,12.00
2018-06-25T03:20:25.804Z,16.00
2018-06-25T03:22:18.797Z,12.00
2018-06-25T03:23:18.749Z,12.00
2018-06-25T03:25:11.724Z,20.00
2018-06-25T03:26:11.685Z,20.00
2018-06-25T03:28:04.659Z,20.00
2018-06-25T03:29:04.620Z,16.00
2018-06-25T03:30:57.457Z,20.00
2018-06-25T03:31:57.395Z,20.00
2018-06-25T03:33:50.385Z,20.00
2018-06-25T03:34:50.359Z,20.00
2018-06-25T03:36:43.509Z,28.00
2018-06-25T03:37:43.460Z,28.00
2018-06-25T03:39:36.264Z,32.00
2018-06-25T03:40:36.232Z,32.00
2018-06-25T03:42:29.256Z,36.00
2018-06-25T03:43:29.222Z,36.00
2018-06-25T03:45:22.350Z,44.00
2018-06-25T03:46:22.305Z,52.00
2018-06-25T03:48:15.282Z,60.00
2018-06-25T03:49:15.246Z,64.00
2018-06-25T03:51:08.071Z,72.00
2018-06-25T03:52:08.021Z,80.00
2018-06-25T03:54:01.257Z,76.00
2018-06-25T03:55:01.124Z,80.00
2018-06-25T03:56:54.116Z,76.00
2018-06-25T03:57:54.058Z,76.00
2018-06-25T03:59:47.026Z,76.00
2018-06-25T04:00:47.000Z,72.00
2018-06-25T04:02:39.897Z,76.00
2018-06-25T04:03:39.855Z,72.00
2018-06-25T04:05:32.815Z,68.00
2018-06-25T04:06:32.795Z,72.00
2018-06-25T04:08:25.770Z,76.00
2018-06-25T04:09:25.754Z,76.00
2018-06-25T04:11:18.855Z,76.00
2018-06-25T04:12:18.812Z,76.00
2018-06-25T04:14:11.637Z,80.00
2018-06-25T04:15:11.591Z,84.00
2018-06-25T04:17:04.572Z,72.00
2018-06-25T04:18:04.531Z,76.00
2018-06-25T04:19:57.646Z,84.00
2018-06-25T04:20:57.611Z,88.00
2018-06-25T04:22:50.586Z,80.00
2018-06-25T04:23:50.542Z,80.00
2018-06-25T04:25:43.517Z,108.00
2018-06-25T04:26:43.493Z,112.00
2018-06-25T04:28:36.647Z,132.00
2018-06-25T04:29:36.581Z,156.00
2018-06-25T04:31:29.391Z,184.00
2018-06-25T04:32:29.352Z,200.00
2018-06-25T04:34:22.357Z,212.00
2018-06-25T04:35:22.308Z,216.00
2018-06-25T04:37:15.481Z,212.00
2018-06-25T04:38:15.401Z,192.00
2018-06-25T04:40:08.433Z,168.00
2018-06-25T04:41:08.341Z,168.00
2018-06-25T04:43:01.342Z,176.00
2018-06-25T04:44:01.285Z,196.00
2018-06-25T04:45:54.089Z,228.00
2018-06-25T04:46:54.058Z,236.00
2018-06-25T04:48:47.063Z,252.00
2018-06-25T04:49:47.007Z,264.00
2018-06-25T04:51:39.969Z,308.00
2018-06-25T04:52:40.040Z,340.00
2018-06-25T04:54:33.109Z,388.00
2018-06-25T04:55:33.042Z,396.00
2018-06-25T04:57:25.871Z,456.00
2018-06-25T04:58:25.822Z,488.00
2018-06-25T05:00:18.914Z,532.00
2018-06-25T05:01:18.974Z,552.00
2018-06-25T05:03:11.991Z,588.00
2018-06-25T05:04:11.948Z,552.00
2018-06-25T05:06:05.008Z,536.00
2018-06-25T05:07:04.954Z,584.00
2018-06-25T05:08:58.315Z,696.00
2018-06-25T05:09:58.230Z,788.00
2018-06-25T05:11:51.072Z,812.00
2018-06-25T05:12:51.007Z,836.00
2018-06-25T05:14:44.003Z,928.00
2018-06-25T05:15:43.949Z,984.00
2018-06-25T05:17:37.133Z,1096.00
2018-06-25T05:18:37.053Z,1132.00
2018-06-25T05:20:30.042Z,1228.00
2018-06-25T05:21:29.983Z,1220.00
2018-06-25T05:23:22.797Z,1172.00
2018-06-25T05:24:22.850Z,1232.00
2018-06-25T05:26:15.900Z,1224.00
2018-06-25T05:27:15.830Z,1228.00
2018-06-25T05:29:08.867Z,1492.00
2018-06-25T05:30:08.777Z,1508.00
2018-06-25T05:32:01.768Z,1520.00
2018-06-25T05:33:01.703Z,1316.00
2018-06-25T05:34:54.873Z,1228.00
2018-06-25T05:35:54.797Z,1196.00
2018-06-25T05:37:47.763Z,1220.00
2018-06-25T05:38:47.741Z,1172.00
2018-06-25T05:40:40.739Z,1044.00
2018-06-25T05:41:40.684Z,936.00
2018-06-25T05:43:33.745Z,900.00
2018-06-25T05:44:33.696Z,844.00
2018-06-25T05:46:26.691Z,688.00
2018-06-25T05:47:26.627Z,636.00
2018-06-25T05:49:19.604Z,592.00
2018-06-25T05:50:19.575Z,600.00
2018-06-25T05:52:12.615Z,584.00
2018-06-25T05:53:12.558Z,564.00
2018-06-25T05:55:05.529Z,532.00
2018-06-25T05:56:05.505Z,500.00
2018-06-25T05:57:58.759Z,484.00
2018-06-25T05:58:58.685Z,508.00
2018-06-25T06:00:51.638Z,580.00
2018-06-25T06:01:51.564Z,660.00
2018-06-25T06:03:44.547Z,752.00
2018-06-25T06:04:44.506Z,732.00
2018-06-25T06:06:37.631Z,700.00
2018-06-25T06:07:37.574Z,672.00
2018-06-25T06:09:30.556Z,668.00
2018-06-25T06:10:30.529Z,648.00
2018-06-25T06:12:23.509Z,660.00
2018-06-25T06:13:23.460Z,664.00
2018-06-25T06:15:16.268Z,672.00
2018-06-25T06:16:16.239Z,680.00
2018-06-25T06:18:09.224Z,732.00
2018-06-25T06:19:09.180Z,740.00
2018-06-25T06:21:02.005Z,668.00
2018-06-25T06:22:02.035Z,680.00
2018-06-25T06:23:54.951Z,788.00
2018-06-25T06:24:54.900Z,932.00
2018-06-25T06:26:47.812Z,984.00
2018-06-25T06:27:47.775Z,652.00
2018-06-25T06:29:40.785Z,752.00
2018-06-25T06:30:40.730Z,840.00
2018-06-25T06:32:33.719Z,1004.00
2018-06-25T06:33:33.670Z,664.00
2018-06-25T06:35:26.856Z,984.00
2018-06-25T06:36:26.776Z,1236.00
2018-06-25T06:38:19.774Z,1156.00
2018-06-25T06:39:19.736Z,1072.00
2018-06-25T06:41:12.720Z,1020.00
2018-06-25T06:42:12.669Z,936.00
2018-06-25T06:44:05.746Z,964.00
2018-06-25T06:45:05.601Z,984.00
2018-06-25T06:46:58.600Z,1072.00
2018-06-25T06:47:58.562Z,1084.00
2018-06-25T06:49:51.570Z,1104.00
2018-06-25T06:50:51.511Z,1156.00
2018-06-25T06:52:44.346Z,1192.00
2018-06-25T06:53:44.311Z,1172.00
2018-06-25T06:55:37.291Z,1216.00
2018-06-25T06:56:37.233Z,1276.00
2018-06-25T06:58:30.193Z,1236.00
2018-06-25T06:59:30.165Z,1176.00
2018-06-25T07:01:23.373Z,1212.00
2018-06-25T07:02:23.249Z,1236.00
2018-06-25T07:04:16.231Z,1300.00
2018-06-25T07:05:16.209Z,1344.00
2018-06-25T07:07:09.183Z,1388.00
2018-06-25T07:08:09.141Z,1384.00
2018-06-25T07:10:02.291Z,1460.00
2018-06-25T07:11:02.201Z,1520.00
2018-06-25T07:12:55.191Z,1532.00
2018-06-25T07:13:55.170Z,1536.00
2018-06-25T07:15:48.146Z,1428.00
2018-06-25T07:16:48.106Z,1328.00
2018-06-25T07:18:40.917Z,1316.00
2018-06-25T07:19:40.881Z,1296.00
2018-06-25T07:21:33.888Z,1356.00
2018-06-25T07:22:33.826Z,1512.00
2018-06-25T07:24:27.018Z,1644.00
2018-06-25T07:25:26.993Z,1684.00
2018-06-25T07:27:20.040Z,2068.00
2018-06-25T07:28:20.003Z,2348.00
2018-06-25T07:30:12.963Z,2424.00
2018-06-25T07:31:12.929Z,2492.00
2018-06-25T07:33:05.916Z,2216.00
2018-06-25T07:34:05.866Z,2264.00
2018-06-25T07:35:58.902Z,2544.00
2018-06-25T07:36:58.818Z,2520.00
2018-06-25T07:38:51.802Z,2552.00
2018-06-25T07:39:51.741Z,2724.00
2018-06-25T07:41:44.742Z,2732.00
2018-06-25T07:42:44.697Z,2824.00
2018-06-25T07:44:37.673Z,2648.00
2018-06-25T07:45:37.628Z,2432.00
2018-06-25T07:47:30.630Z,1972.00
2018-06-25T07:48:30.581Z,1780.00
2018-06-25T07:50:23.547Z,1744.00
2018-06-25T07:51:23.521Z,1684.00
2018-06-25T07:53:16.494Z,1868.00
2018-06-25T07:54:16.352Z,2076.00
2018-06-25T07:56:09.339Z,2448.00
2018-06-25T07:57:09.314Z,2600.00
2018-06-25T07:59:02.304Z,3100.00
2018-06-25T08:00:02.275Z,3392.00
2018-06-25T08:01:55.383Z,4244.00
2018-06-25T08:02:55.342Z,4116.00
2018-06-25T08:04:48.359Z,4072.00
2018-06-25T08:05:48.314Z,3888.00
2018-06-25T08:07:41.308Z,3728.00
2018-06-25T08:08:41.250Z,3948.00
2018-06-25T08:10:34.174Z,4328.00
2018-06-25T08:11:34.070Z,4304.00
2018-06-25T08:13:27.073Z,3604.00
2018-06-25T08:14:27.016Z,3172.00
2018-06-25T08:16:20.057Z,2200.00
2018-06-25T08:17:19.985Z,1756.00
2018-06-25T08:19:13.131Z,1408.00
2018-06-25T08:20:13.117Z,1428.00
2018-06-25T08:22:06.049Z,1656.00
2018-06-25T08:23:06.014Z,1696.00
2018-06-25T08:24:59.004Z,1832.00
2018-06-25T08:25:58.960Z,2408.00
2018-06-25T08:27:51.790Z,3848.00
2018-06-25T08:28:51.764Z,4556.00
2018-06-25T08:30:44.769Z,5440.00
2018-06-25T08:31:44.715Z,5476.00
2018-06-25T08:33:37.711Z,4988.00
2018-06-25T08:34:37.654Z,4928.00
2018-06-25T08:36:30.490Z,4876.00
2018-06-25T08:37:30.451Z,4576.00
2018-06-25T08:39:24.245Z,3888.00
2018-06-25T08:40:24.223Z,4212.00
2018-06-25T08:42:17.203Z,3448.00
2018-06-25T08:43:17.171Z,3036.00
2018-06-25T08:45:10.150Z,2448.00
2018-06-25T08:46:10.155Z,2292.00
2018-06-25T08:48:03.289Z,2072.00
2018-06-25T08:49:03.200Z,1888.00
2018-06-25T08:50:56.187Z,1908.00
2018-06-25T08:51:56.187Z,2112.00
2018-06-25T08:53:49.105Z,2960.00
2018-06-25T08:54:49.080Z,3396.00
2018-06-25T08:56:41.911Z,4236.00
2018-06-25T08:57:41.860Z,4820.00
2018-06-25T08:59:34.854Z,4920.00
2018-06-25T09:00:34.813Z,4636.00
2018-06-25T09:02:27.787Z,4220.00
2018-06-25T09:03:27.766Z,4636.00
2018-06-25T09:05:21.061Z,6048.00
2018-06-25T09:06:20.862Z,6020.00
2018-06-25T09:08:13.865Z,4772.00
2018-06-25T09:09:13.815Z,4348.00
2018-06-25T09:11:06.636Z,4368.00
2018-06-25T09:12:06.599Z,3864.00
2018-06-25T09:13:59.769Z,3096.00
2018-06-25T09:14:59.684Z,3076.00
2018-06-25T09:16:52.675Z,2736.00
2018-06-25T09:17:52.627Z,2632.00
2018-06-25T09:19:45.610Z,2736.00
2018-06-25T09:20:45.576Z,3108.00
2018-06-25T09:22:38.717Z,4184.00
2018-06-25T09:23:38.576Z,5872.00
2018-06-25T09:25:31.555Z,7352.00
2018-06-25T09:26:31.512Z,6988.00
2018-06-25T09:28:24.542Z,5544.00
2018-06-25T09:29:24.488Z,5672.00
2018-06-25T09:31:17.427Z,4840.00
2018-06-25T09:32:17.403Z,4384.00
2018-06-25T09:34:10.396Z,4280.00
2018-06-25T09:35:10.384Z,4140.00
2018-06-25T09:37:03.326Z,3960.00
2018-06-25T09:38:03.298Z,3500.00
2018-06-25T09:39:56.441Z,2676.00
2018-06-25T09:40:56.437Z,2568.00
2018-06-25T09:42:49.377Z,2248.00
2018-06-25T09:43:49.347Z,2224.00
2018-06-25T09:45:42.342Z,1924.00
2018-06-25T09:46:42.292Z,2032.00
2018-06-25T09:48:35.350Z,2244.00
2018-06-25T09:49:35.324Z,2532.00
2018-06-25T09:51:28.304Z,2928.00
2018-06-25T09:52:28.257Z,2812.00
2018-06-25T09:54:21.388Z,3800.00
2018-06-25T09:55:21.337Z,3848.00
2018-06-25T09:57:14.319Z,3136.00
2018-06-25T09:58:14.283Z,3720.00
2018-06-25T10:00:07.294Z,6064.00
2018-06-25T10:01:07.242Z,6216.00
2018-06-25T10:03:00.376Z,7052.00
2018-06-25T10:04:00.342Z,5808.00
2018-06-25T10:05:53.168Z,6292.00
2018-06-25T10:06:53.123Z,6528.00
2018-06-25T10:08:46.452Z,5188.00
2018-06-25T10:09:46.408Z,5248.00
2018-06-25T10:11:39.441Z,7272.00
2018-06-25T10:12:39.363Z,7736.00
2018-06-25T10:14:32.338Z,11104.00
2018-06-25T10:15:32.313Z,10892.00
2018-06-25T10:17:25.484Z,10360.00
2018-06-25T10:18:25.440Z,10772.00
2018-06-25T10:20:18.474Z,10312.00
2018-06-25T10:21:18.555Z,8700.00
2018-06-25T10:23:11.662Z,6664.00
2018-06-25T10:24:11.559Z,6056.00
2018-06-25T10:26:04.611Z,4748.00
2018-06-25T10:27:04.544Z,4556.00
2018-06-25T10:28:57.539Z,4152.00
2018-06-25T10:29:57.509Z,4076.00
2018-06-25T10:31:50.329Z,4000.00
2018-06-25T10:32:50.288Z,3988.00
2018-06-25T10:34:43.455Z,4228.00
2018-06-25T10:35:43.420Z,4888.00
2018-06-25T10:37:36.420Z,9084.00
2018-06-25T10:38:36.364Z,9288.00
2018-06-25T10:40:29.238Z,9184.00
2018-06-25T10:41:29.193Z,8464.00
2018-06-25T10:43:22.189Z,10612.00
2018-06-25T10:44:22.139Z,10528.00
2018-06-25T10:46:15.131Z,9124.00
2018-06-25T10:47:15.084Z,8492.00
2018-06-25T10:49:08.223Z,7784.00
2018-06-25T10:50:08.164Z,6840.00
2018-06-25T10:52:01.171Z,6528.00
2018-06-25T10:53:01.119Z,5912.00
2018-06-25T10:54:54.110Z,5104.00
2018-06-25T10:55:54.061Z,5248.00
2018-06-25T10:57:46.958Z,6172.00
2018-06-25T10:58:46.910Z,6624.00
2018-06-25T11:00:39.878Z,5752.00
2018-06-25T11:01:39.854Z,5588.00
2018-06-25T11:03:32.858Z,5656.00
2018-06-25T11:04:32.813Z,5240.00
2018-06-25T11:06:25.955Z,4196.00
2018-06-25T11:07:26.057Z,3768.00
2018-06-25T11:09:18.880Z,3604.00
2018-06-25T11:10:18.839Z,3636.00
2018-06-25T11:12:11.826Z,3736.00
2018-06-25T11:13:11.796Z,3688.00
2018-06-25T11:15:04.639Z,3608.00
2018-06-25T11:16:04.591Z,3616.00
2018-06-25T11:17:57.425Z,3956.00
2018-06-25T11:18:57.365Z,4908.00
2018-06-25T11:20:50.362Z,5696.00
2018-06-25T11:21:50.311Z,5076.00
2018-06-25T11:23:43.295Z,4804.00
2018-06-25T11:24:43.264Z,4760.00
2018-06-25T11:26:36.123Z,4576.00
2018-06-25T11:27:36.084Z,4276.00
2018-06-25T11:29:28.940Z,4476.00
2018-06-25T11:30:28.840Z,5628.00
2018-06-25T11:32:21.915Z,6924.00
2018-06-25T11:33:21.970Z,6556.00
2018-06-25T11:35:15.145Z,6424.00
2018-06-25T11:36:14.980Z,6548.00
2018-06-25T11:38:07.960Z,6764.00
2018-06-25T11:39:07.943Z,7084.00
2018-06-25T11:41:00.836Z,6920.00
2018-06-25T11:42:00.825Z,6372.00
2018-06-25T11:43:53.700Z,5388.00
2018-06-25T11:44:53.669Z,5032.00
2018-06-25T11:46:46.677Z,4852.00
2018-06-25T11:47:46.628Z,4928.00
2018-06-25T11:49:39.601Z,5016.00
2018-06-25T11:50:39.581Z,5004.00
2018-06-25T11:52:32.870Z,5328.00
2018-06-25T11:53:32.702Z,5372.00
2018-06-25T11:55:25.705Z,5480.00
2018-06-25T11:56:25.645Z,5516.00
2018-06-25T11:58:18.636Z,5420.00
2018-06-25T11:59:18.586Z,5256.00
2018-06-25T12:01:11.811Z,4636.00
2018-06-25T12:02:11.862Z,4256.00
2018-06-25T12:04:04.782Z,3688.00
2018-06-25T12:05:04.796Z,3496.00
2018-06-25T12:06:57.904Z,3028.00
2018-06-25T12:07:57.810Z,3008.00
2018-06-25T12:09:50.790Z,3128.00
2018-06-25T12:10:50.748Z,3092.00
2018-06-25T12:12:43.742Z,3144.00
2018-06-25T12:13:43.690Z,3080.00
2018-06-25T12:15:37.006Z,2840.00
2018-06-25T12:16:36.957Z,2636.00
2018-06-25T12:18:29.937Z,2692.00
2018-06-25T12:19:29.900Z,2764.00
2018-06-25T12:21:23.064Z,3328.00
2018-06-25T12:22:23.005Z,3592.00
2018-06-25T12:24:16.001Z,3976.00
2018-06-25T12:25:15.948Z,4116.00
2018-06-25T12:27:08.932Z,4308.00
2018-06-25T12:28:08.881Z,4184.00
2018-06-25T12:30:01.744Z,3768.00
2018-06-25T12:31:01.676Z,3404.00
2018-06-25T12:32:54.684Z,3152.00
2018-06-25T12:33:54.628Z,3208.00
2018-06-25T12:35:47.597Z,3224.00
2018-06-25T12:36:47.573Z,3312.00
2018-06-25T12:38:40.721Z,3456.00
2018-06-25T12:39:40.681Z,3584.00
2018-06-25T12:41:33.717Z,3776.00
2018-06-25T12:42:33.628Z,3948.00
2018-06-25T12:44:26.618Z,4448.00
2018-06-25T12:45:26.564Z,4908.00
2018-06-25T12:47:19.419Z,5952.00
2018-06-25T12:48:19.408Z,6788.00
2018-06-25T12:50:12.386Z,7168.00
2018-06-25T12:51:12.339Z,7224.00
2018-06-25T12:53:05.347Z,6528.00
2018-06-25T12:54:05.282Z,6112.00
2018-06-25T12:55:58.434Z,5144.00
2018-06-25T12:56:58.389Z,4704.00
2018-06-25T12:58:51.350Z,3924.00
2018-06-25T12:59:51.302Z,3748.00
2018-06-25T13:01:44.308Z,3824.00
2018-06-25T13:02:44.268Z,4012.00
2018-06-25T13:04:37.361Z,4864.00
2018-06-25T13:05:37.307Z,5604.00
2018-06-25T13:07:30.273Z,7192.00
2018-06-25T13:08:30.239Z,8064.00
2018-06-25T13:10:23.234Z,8080.00
2018-06-25T13:11:23.188Z,7912.00
2018-06-25T13:13:16.118Z,7564.00
2018-06-25T13:14:16.023Z,7280.00
2018-06-25T13:16:09.018Z,7248.00
2018-06-25T13:17:08.969Z,7212.00
2018-06-25T13:19:01.972Z,7332.00
2018-06-25T13:20:01.927Z,7360.00
2018-06-25T13:21:54.739Z,7336.00
2018-06-25T13:22:54.712Z,7388.00
2018-06-25T13:24:47.708Z,7144.00
2018-06-25T13:25:47.710Z,7440.00
2018-06-25T13:27:40.666Z,7700.00
2018-06-25T13:28:40.633Z,7948.00
2018-06-25T13:30:33.744Z,8212.00
2018-06-25T13:31:33.703Z,8244.00
2018-06-25T13:33:26.690Z,7932.00
2018-06-25T13:34:26.660Z,7464.00
2018-06-25T13:36:19.647Z,7136.00
2018-06-25T13:37:19.608Z,7100.00
2018-06-25T13:39:12.719Z,8540.00
2018-06-25T13:40:12.688Z,6288.00
2018-06-25T13:42:05.704Z,6508.00
2018-06-25T13:43:05.664Z,6592.00
2018-06-25T13:44:58.970Z,8164.00
2018-06-25T13:45:58.866Z,8132.00
2018-06-25T13:47:51.856Z,14448.00
2018-06-25T13:48:51.834Z,14048.00
2018-06-25T13:50:44.820Z,7224.00
2018-06-25T13:51:44.779Z,6564.00
2018-06-25T13:53:37.843Z,7116.00
2018-06-25T13:54:37.851Z,7496.00
2018-06-25T13:56:30.804Z,7180.00
2018-06-25T13:57:30.744Z,6992.00
2018-06-25T13:59:23.730Z,7292.00
2018-06-25T14:00:23.703Z,5968.00
2018-06-25T14:02:16.721Z,6576.00
2018-06-25T14:03:16.690Z,11064.00
2018-06-25T14:05:09.691Z,3972.00
2018-06-25T14:06:09.728Z,3736.00
2018-06-25T14:08:02.932Z,3608.00
2018-06-25T14:09:02.814Z,9952.00
2018-06-25T14:10:55.799Z,10000.00
2018-06-25T14:11:55.755Z,9780.00
2018-06-25T14:13:48.576Z,9496.00
2018-06-25T14:14:48.623Z,9240.00
2018-06-25T14:16:41.875Z,3188.00
2018-06-25T14:17:41.700Z,3108.00
2018-06-25T14:19:34.688Z,3496.00
2018-06-25T14:20:34.663Z,9836.00
2018-06-25T14:22:27.656Z,9616.00
2018-06-25T14:23:27.620Z,9536.00
2018-06-25T14:25:20.434Z,9644.00
2018-06-25T14:26:20.411Z,9828.00
2018-06-25T14:28:13.439Z,9844.00
2018-06-25T14:29:13.376Z,9808.00
2018-06-25T14:31:06.212Z,9668.00
2018-06-25T14:32:06.181Z,9656.00
2018-06-25T14:33:59.028Z,9592.00
2018-06-25T14:34:58.984Z,9424.00
2018-06-25T14:36:52.152Z,9236.00
2018-06-25T14:37:52.102Z,8680.00
2018-06-25T14:39:45.072Z,9916.00
2018-06-25T14:40:45.122Z,10040.00
2018-06-25T14:42:38.310Z,9964.00
2018-06-25T14:43:38.140Z,9704.00
2018-06-25T14:45:31.116Z,4976.00
2018-06-25T14:46:31.093Z,9736.00
2018-06-25T14:48:24.139Z,10180.00
2018-06-25T14:49:24.060Z,8668.00
2018-06-25T14:51:17.158Z,6292.00
2018-06-25T14:52:17.160Z,10284.00
2018-06-25T14:54:10.160Z,10872.00
2018-06-25T14:55:10.126Z,10684.00
2018-06-25T14:57:03.095Z,6136.00
2018-06-25T14:58:03.082Z,10600.00
2018-06-25T14:59:55.924Z,10616.00
2018-06-25T15:00:55.886Z,10504.00
2018-06-25T15:02:48.908Z,10416.00
2018-06-25T15:03:48.876Z,10096.00
2018-06-25T15:05:41.879Z,10084.00
2018-06-25T15:06:41.846Z,10116.00
2018-06-25T15:08:34.681Z,10024.00
2018-06-25T15:09:34.659Z,10000.00
2018-06-25T15:11:27.833Z,9684.00
2018-06-25T15:12:27.803Z,9700.00
2018-06-25T15:14:20.795Z,9728.00
2018-06-25T15:15:20.765Z,9772.00
2018-06-25T15:17:13.607Z,4128.00
2018-06-25T15:18:13.567Z,4028.00
2018-06-25T15:20:06.638Z,4168.00
2018-06-25T15:21:06.540Z,9708.00
2018-06-25T15:22:59.531Z,4312.00
2018-06-25T15:23:59.503Z,4256.00
2018-06-25T15:25:52.490Z,4584.00
2018-06-25T15:26:52.415Z,4732.00
2018-06-25T15:28:45.413Z,4976.00
2018-06-25T15:29:45.379Z,5240.00
2018-06-25T15:31:38.398Z,5568.00
2018-06-25T15:32:38.337Z,5816.00
2018-06-25T15:34:31.470Z,9528.00
2018-06-25T15:35:31.449Z,9464.00
2018-06-25T15:37:24.492Z,11500.00
2018-06-25T15:38:24.512Z,11356.00
2018-06-25T15:40:17.549Z,11268.00
2018-06-25T15:41:17.498Z,11400.00
2018-06-25T15:43:10.329Z,11352.00
2018-06-25T15:44:10.303Z,11264.00
2018-06-25T15:46:03.311Z,11248.00
2018-06-25T15:47:03.278Z,10772.00
2018-06-25T15:48:56.519Z,10076.00
2018-06-25T15:49:56.478Z,9180.00
2018-06-25T15:51:49.345Z,4132.00
2018-06-25T15:52:49.283Z,3944.00
2018-06-25T15:54:42.282Z,4008.00
2018-06-25T15:55:42.244Z,6028.00
2018-06-25T15:57:35.408Z,4268.00
2018-06-25T15:58:35.342Z,4448.00
2018-06-25T16:00:28.340Z,5336.00
2018-06-25T16:01:28.323Z,5788.00
2018-06-25T16:03:21.239Z,11076.00
2018-06-25T16:04:21.203Z,10660.00
2018-06-25T16:06:14.049Z,9964.00
2018-06-25T16:07:14.009Z,9968.00
2018-06-25T16:09:07.001Z,9760.00
2018-06-25T16:10:06.978Z,4404.00
2018-06-25T16:11:59.834Z,3172.00
2018-06-25T16:12:59.784Z,3052.00
2018-06-25T16:14:52.768Z,3268.00
2018-06-25T16:15:52.739Z,3784.00
2018-06-25T16:17:45.612Z,8972.00
2018-06-25T16:18:45.607Z,9404.00
2018-06-25T16:20:38.574Z,9672.00
2018-06-25T16:21:38.560Z,9820.00
2018-06-25T16:23:31.626Z,9388.00
2018-06-25T16:24:31.606Z,8684.00
2018-06-25T16:26:24.633Z,9344.00
2018-06-25T16:27:24.590Z,6656.00
2018-06-25T16:29:17.598Z,4256.00
2018-06-25T16:30:17.564Z,4560.00
2018-06-25T16:32:10.799Z,4440.00
2018-06-25T16:33:10.669Z,5264.00
2018-06-25T16:35:03.665Z,5036.00
2018-06-25T16:36:03.629Z,9092.00
2018-06-25T16:37:56.600Z,9744.00
2018-06-25T16:38:56.576Z,9920.00
2018-06-25T16:40:49.510Z,9456.00
2018-06-25T16:41:49.376Z,9768.00
2018-06-25T16:43:42.396Z,6092.00
2018-06-25T16:44:42.345Z,9512.00
2018-06-25T16:46:35.325Z,6884.00
2018-06-25T16:47:35.294Z,5452.00
2018-06-25T16:49:28.470Z,9108.00
2018-06-25T16:50:28.411Z,8980.00
2018-06-25T16:52:21.421Z,7280.00
2018-06-25T16:53:21.384Z,4580.00
2018-06-25T16:55:14.190Z,3716.00
2018-06-25T16:56:14.179Z,3596.00
2018-06-25T16:58:07.398Z,7120.00
2018-06-25T16:59:07.300Z,3484.00
2018-06-25T17:01:00.144Z,7532.00
2018-06-25T17:02:00.102Z,7900.00
2018-06-25T17:03:53.109Z,8188.00
2018-06-25T17:04:53.077Z,3532.00
2018-06-25T17:06:45.931Z,3752.00
2018-06-25T17:07:45.879Z,4032.00
2018-06-25T17:09:38.722Z,7840.00
2018-06-25T17:10:38.721Z,7852.00
2018-06-25T17:12:31.710Z,7084.00
2018-06-25T17:13:31.670Z,6920.00
2018-06-25T17:15:24.652Z,6820.00
2018-06-25T17:16:24.639Z,6540.00
2018-06-25T17:18:17.530Z,6228.00
2018-06-25T17:19:17.466Z,6036.00
2018-06-25T17:21:10.493Z,5828.00
2018-06-25T17:22:10.444Z,5320.00
2018-06-25T17:24:03.276Z,3176.00
2018-06-25T17:25:03.227Z,2292.00
2018-06-25T17:26:56.255Z,2180.00
2018-06-25T17:27:56.195Z,2312.00
2018-06-25T17:29:49.058Z,2236.00
2018-06-25T17:30:49.032Z,2224.00
2018-06-25T17:32:42.023Z,5080.00
2018-06-25T17:33:41.972Z,5176.00
2018-06-25T17:35:34.812Z,4952.00
2018-06-25T17:36:34.786Z,3884.00
2018-06-25T17:38:27.806Z,2584.00
2018-06-25T17:39:27.767Z,4560.00
2018-06-25T17:41:20.716Z,4884.00
2018-06-25T17:42:20.573Z,4960.00
2018-06-25T17:44:13.571Z,4756.00
2018-06-25T17:45:13.515Z,4848.00
2018-06-25T17:47:06.522Z,4364.00
2018-06-25T17:48:06.483Z,2328.00
2018-06-25T17:49:59.297Z,3948.00